Time;durP1;ratioP1;P1;durP2;ratioP2;P2;SDS_P1;SDS_P2;PMS_P1;PMS_P2;Temp;Humidity;BMP_temperature;BMP_pressure;BME280_temperature;BME280_humidity;BME280_pressure;Samples;Min_cycle;Max_cycle;Signal;HPM_P1;HPM_P2
2023/12/19 00:02:24;;;;;;;34.08;24.00;;;8.20;1.00;;;;;;5070889;28;20377;-71
2023/12/19 00:04:52;;;;;;;32.00;22.85;;;8.10;1.00;;;;;;5065974;28;20224;-73
2023/12/19 00:07:21;;;;;;;33.90;23.33;;;8.00;1.00;;;;;;5070876;28;20326;-72
2023/12/19 00:09:49;;;;;;;34.00;23.48;;;8.00;1.00;;;;;;5068949;28;20224;-74
2023/12/19 00:12:18;;;;;;;35.10;22.20;;;8.10;1.00;;;;;;5069268;28;20298;-75
2023/12/19 00:15:12;;;;;;;33.50;22.80;;;7.90;1.00;;;;;;5063344;28;20224;-77
2023/12/19 00:17:43;;;;;;;29.90;21.67;;;7.90;1.00;;;;;;5066905;28;20224;-74
2023/12/19 00:20:12;;;;;;;29.95;21.13;;;7.90;1.00;;;;;;5058617;28;20224;-75
2023/12/19 00:22:41;;;;;;;28.00;20.13;;;7.90;1.00;;;;;;5074611;28;20328;-77
2023/12/19 00:25:10;;;;;;;31.63;20.38;;;7.80;1.00;;;;;;5062018;28;20243;-79
2023/12/19 00:27:39;;;;;;;29.88;20.00;;;7.70;1.00;;;;;;5074070;28;20277;-76
2023/12/19 00:30:09;;;;;;;28.70;19.73;;;7.70;1.00;;;;;;5059457;28;20629;-78
2023/12/19 00:32:38;;;;;;;26.42;19.48;;;7.60;1.00;;;;;;5072903;28;20224;-79
2023/12/19 00:35:09;;;;;;;26.02;18.80;;;7.80;1.00;;;;;;5065104;28;20587;-77
2023/12/19 00:37:38;;;;;;;27.27;18.85;;;7.70;1.00;;;;;;5058637;28;20691;-82
2023/12/19 00:40:08;;;;;;;25.67;17.98;;;7.70;1.00;;;;;;5063738;28;20583;-78
2023/12/19 00:42:37;;;;;;;30.88;19.05;;;7.70;1.00;;;;;;5068075;28;20231;-78
2023/12/19 00:45:07;;;;;;;26.02;17.65;;;7.70;1.00;;;;;;5065304;28;20224;-79
2023/12/19 00:47:36;;;;;;;23.05;17.08;;;7.70;1.00;;;;;;5063689;28;20224;-77
2023/12/19 00:50:09;;;;;;;25.70;16.65;;;7.60;1.00;;;;;;5067103;28;20742;-78
2023/12/19 00:52:38;;;;;;;25.63;16.55;;;7.60;1.00;;;;;;5071540;28;20228;-77
2023/12/19 00:55:07;;;;;;;22.50;15.95;;;7.70;1.00;;;;;;5063238;28;20247;-77
2023/12/19 00:57:36;;;;;;;27.05;17.02;;;7.60;1.00;;;;;;5061333;28;20307;-78
2023/12/19 01:00:06;;;;;;;24.52;16.90;;;7.60;1.00;;;;;;5078855;28;20703;-76
2023/12/19 01:02:34;;;;;;;26.08;17.13;;;7.50;1.00;;;;;;5061929;28;20334;-77
2023/12/19 01:05:03;;;;;;;28.70;16.05;;;7.60;1.00;;;;;;5059180;28;20227;-77
2023/12/19 01:07:33;;;;;;;24.13;16.67;;;7.70;1.00;;;;;;5065270;28;20228;-75
2023/12/19 01:10:02;;;;;;;21.83;15.23;;;7.70;1.00;;;;;;5087018;28;20286;-77
2023/12/19 01:12:31;;;;;;;24.80;15.63;;;7.70;1.00;;;;;;5061288;28;20765;-77
2023/12/19 01:15:00;;;;;;;21.88;15.73;;;7.70;1.00;;;;;;5066279;28;20290;-77
2023/12/19 01:17:29;;;;;;;20.65;14.73;;;7.80;1.00;;;;;;5064931;28;20220;-77
2023/12/19 01:19:58;;;;;;;19.60;14.40;;;7.70;1.00;;;;;;5059566;28;20627;-77
2023/12/19 01:22:27;;;;;;;19.77;13.68;;;7.70;1.00;;;;;;5062266;28;20272;-76
2023/12/19 01:24:56;;;;;;;20.27;13.70;;;7.70;1.00;;;;;;5064721;28;20224;-76
2023/12/19 01:27:25;;;;;;;21.13;13.88;;;7.70;1.00;;;;;;5060429;28;20229;-75
2023/12/19 01:29:54;;;;;;;21.55;13.95;;;7.70;1.00;;;;;;5060147;28;20225;-78
2023/12/19 01:32:25;;;;;;;19.52;13.25;;;7.70;1.00;;;;;;5060877;28;20785;-76
2023/12/19 01:34:54;;;;;;;20.27;13.93;;;7.70;1.00;;;;;;5096775;28;20223;-76
2023/12/19 01:37:23;;;;;;;20.02;13.20;;;7.80;1.00;;;;;;5065043;28;20220;-76
2023/12/19 01:39:51;;;;;;;20.10;13.70;;;7.80;1.00;;;;;;5060760;28;20241;-76
2023/12/19 01:42:21;;;;;;;21.25;13.27;;;7.70;1.00;;;;;;5067014;28;20294;-75
2023/12/19 01:45:08;;;;;;;20.10;13.05;;;7.80;1.00;;;;;;5066951;28;20270;-78
2023/12/19 01:47:39;;;;;;;20.17;13.48;;;7.80;1.00;;;;;;5060942;28;20228;-77
2023/12/19 01:50:09;;;;;;;18.98;12.38;;;7.80;1.00;;;;;;5058864;28;20238;-77
2023/12/19 01:52:43;;;;;;;24.90;13.68;;;7.80;1.00;;;;;;5068063;28;20232;-77
2023/12/19 01:55:14;;;;;;;18.85;12.75;;;7.90;1.00;;;;;;5063322;28;20299;-76
2023/12/19 01:57:45;;;;;;;17.48;11.82;;;7.80;1.00;;;;;;5058777;28;20350;-77
2023/12/19 02:00:15;;;;;;;17.08;11.43;;;7.80;1.00;;;;;;5060771;28;20264;-77
2023/12/19 02:02:45;;;;;;;17.85;11.77;;;7.80;1.00;;;;;;5066367;28;20250;-77
2023/12/19 02:05:17;;;;;;;17.15;11.70;;;7.80;1.00;;;;;;5066496;28;20228;-76
2023/12/19 02:07:46;;;;;;;17.38;10.55;;;7.80;1.00;;;;;;5064901;28;20224;-77
2023/12/19 02:10:15;;;;;;;18.90;11.57;;;7.80;1.00;;;;;;5087342;28;20238;-76
2023/12/19 02:12:45;;;;;;;15.07;10.35;;;7.80;1.00;;;;;;5066530;28;20227;-76
2023/12/19 02:15:14;;;;;;;18.45;11.70;;;7.70;1.00;;;;;;5066503;28;20220;-75
2023/12/19 02:17:43;;;;;;;16.13;10.60;;;7.80;1.00;;;;;;5065164;28;20232;-75
2023/12/19 02:20:12;;;;;;;14.77;9.95;;;7.80;1.00;;;;;;5063254;28;20228;-75
2023/12/19 02:22:41;;;;;;;15.30;10.32;;;7.70;1.00;;;;;;5064946;28;20662;-75
2023/12/19 02:25:11;;;;;;;14.35;9.90;;;7.70;1.00;;;;;;5063785;28;21256;-75
2023/12/19 02:27:40;;;;;;;13.18;9.65;;;7.80;1.00;;;;;;5060256;28;20307;-74
2023/12/19 02:30:10;;;;;;;13.48;9.50;;;7.70;1.00;;;;;;5064281;28;20231;-75
2023/12/19 02:32:41;;;;;;;12.77;8.93;;;7.70;1.00;;;;;;5078284;28;20232;-73
2023/12/19 02:35:10;;;;;;;13.55;9.23;;;7.70;1.00;;;;;;5062156;28;20235;-74
2023/12/19 02:37:38;;;;;;;16.88;9.63;;;7.70;1.00;;;;;;5063133;28;20224;-74
2023/12/19 02:40:09;;;;;;;13.93;9.23;;;7.70;1.00;;;;;;5056330;28;20231;-74
2023/12/19 02:42:42;;;;;;;14.30;9.57;;;7.70;1.00;;;;;;5060393;28;20269;-75
2023/12/19 02:45:12;;;;;;;17.75;9.20;;;7.70;1.00;;;;;;5046684;28;20231;-77
2023/12/19 02:47:40;;;;;;;13.32;8.85;;;7.70;1.00;;;;;;5065082;28;20223;-79
2023/12/19 02:50:10;;;;;;;13.38;8.40;;;7.70;1.00;;;;;;5064801;28;20224;-76
2023/12/19 02:52:39;;;;;;;13.00;8.88;;;7.70;1.00;;;;;;5078673;28;20270;-76
2023/12/19 02:55:09;;;;;;;14.45;9.07;;;7.70;1.00;;;;;;5062999;28;20232;-74
2023/12/19 02:57:38;;;;;;;12.57;8.85;;;7.70;1.00;;;;;;5064243;28;20684;-74
2023/12/19 03:00:10;;;;;;;13.73;8.93;;;7.70;1.00;;;;;;5065026;28;20224;-75
2023/12/19 03:02:39;;;;;;;14.48;8.60;;;7.60;1.00;;;;;;5057806;28;20679;-74
2023/12/19 03:05:08;;;;;;;15.55;7.80;;;7.60;1.00;;;;;;5070513;28;20316;-75
2023/12/19 03:07:37;;;;;;;12.13;7.90;;;7.60;1.00;;;;;;5065837;28;20235;-75
2023/12/19 03:10:08;;;;;;;15.00;8.88;;;7.60;1.00;;;;;;5067254;28;20743;-77
2023/12/19 03:12:37;;;;;;;14.55;7.97;;;7.60;1.00;;;;;;5063644;28;20333;-75
2023/12/19 03:15:08;;;;;;;16.45;7.80;;;7.60;1.00;;;;;;5065028;28;20220;-77
2023/12/19 03:17:36;;;;;;;10.82;7.78;;;7.60;1.00;;;;;;5060309;28;20303;-76
2023/12/19 03:20:06;;;;;;;12.60;8.20;;;7.60;1.00;;;;;;5063802;28;20217;-76
2023/12/19 03:22:35;;;;;;;14.15;8.32;;;7.60;1.00;;;;;;5067196;28;20239;-75
2023/12/19 03:25:04;;;;;;;13.52;8.27;;;7.60;1.00;;;;;;5059610;28;20413;-77
2023/12/19 03:27:33;;;;;;;11.60;8.02;;;7.70;1.00;;;;;;5066497;28;20235;-76
2023/12/19 03:30:02;;;;;;;12.13;8.18;;;7.70;1.00;;;;;;5077294;28;20217;-79
2023/12/19 03:32:33;;;;;;;12.98;7.72;;;7.70;1.00;;;;;;5059841;28;20342;-78
2023/12/19 03:35:02;;;;;;;13.30;8.20;;;7.70;1.00;;;;;;5061898;28;20209;-78
2023/12/19 03:37:31;;;;;;;13.15;7.65;;;7.70;1.00;;;;;;5062724;28;20216;-77
2023/12/19 03:40:00;;;;;;;12.52;8.05;;;7.70;1.00;;;;;;5060139;28;20223;-77
2023/12/19 03:42:29;;;;;;;12.30;7.82;;;7.70;1.00;;;;;;5068500;28;20220;-76
2023/12/19 03:45:08;;;;;;;11.23;7.57;;;7.80;1.00;;;;;;5060780;28;20224;-76
2023/12/19 03:47:38;;;;;;;12.32;8.02;;;7.70;1.00;;;;;;5066019;28;20691;-75
2023/12/19 03:50:08;;;;;;;10.63;7.40;;;7.80;1.00;;;;;;5090071;28;20223;-76
2023/12/19 03:52:37;;;;;;;12.18;7.70;;;7.70;1.00;;;;;;5053971;28;20327;-77
2023/12/19 03:55:08;;;;;;;13.95;7.93;;;7.70;1.00;;;;;;5094610;28;20216;-78
2023/12/19 03:57:36;;;;;;;15.93;8.45;;;7.80;1.00;;;;;;5066930;28;20251;-76
2023/12/19 04:00:07;;;;;;;12.80;8.38;;;7.70;1.00;;;;;;5064721;28;20299;-77
2023/12/19 04:02:37;;;;;;;12.60;8.20;;;7.70;1.00;;;;;;5066576;28;20251;-77
2023/12/19 04:05:06;;;;;;;12.27;7.85;;;7.80;1.00;;;;;;5069273;28;20315;-75
2023/12/19 04:07:35;;;;;;;13.55;8.30;;;7.90;1.00;;;;;;5065684;28;20266;-77
2023/12/19 04:10:04;;;;;;;13.48;8.02;;;7.80;1.00;;;;;;5069910;28;20238;-75
2023/12/19 04:12:33;;;;;;;14.50;8.23;;;7.80;1.00;;;;;;5068676;28;20297;-72
2023/12/19 04:15:01;;;;;;;11.88;8.27;;;7.80;1.00;;;;;;5066526;28;20294;-72
2023/12/19 04:17:30;;;;;;;12.80;8.75;;;7.90;1.00;;;;;;5068758;28;20267;-70
2023/12/19 04:20:04;;;;;;;12.32;8.20;;;7.80;1.00;;;;;;5063700;28;20220;-71
2023/12/19 04:22:33;;;;;;;12.18;8.20;;;7.80;1.00;;;;;;5069621;28;20751;-70
2023/12/19 04:25:01;;;;;;;12.95;8.32;;;7.90;1.00;;;;;;5061239;28;20216;-71
2023/12/19 04:27:30;;;;;;;13.07;7.65;;;7.90;1.00;;;;;;5064281;28;20343;-74
2023/12/19 04:29:59;;;;;;;17.05;8.40;;;7.90;1.00;;;;;;5068729;28;20235;-73
2023/12/19 04:32:28;;;;;;;12.38;8.25;;;7.90;1.00;;;;;;5063331;28;20225;-72
2023/12/19 04:34:56;;;;;;;13.18;7.22;;;8.00;1.00;;;;;;5060914;28;20220;-73
2023/12/19 04:37:26;;;;;;;12.90;8.38;;;8.00;1.00;;;;;;5063292;28;20311;-74
2023/12/19 04:39:57;;;;;;;12.32;8.10;;;8.00;1.00;;;;;;5042754;28;20232;-74
2023/12/19 04:42:35;;;;;;;14.73;8.57;;;8.00;1.00;;;;;;5066354;28;20244;-78
2023/12/19 04:45:05;;;;;;;12.25;8.05;;;8.10;1.00;;;;;;5074219;28;20231;-78
2023/12/19 04:47:33;;;;;;;12.88;7.85;;;8.00;1.00;;;;;;5072589;28;20224;-76
2023/12/19 04:50:03;;;;;;;11.75;7.82;;;8.00;1.00;;;;;;5064424;28;20301;-78
2023/12/19 04:52:34;;;;;;;12.20;7.38;;;8.00;1.00;;;;;;5061734;28;20250;-78
2023/12/19 04:55:03;;;;;;;13.60;7.50;;;8.00;1.00;;;;;;5090096;28;20246;-78
2023/12/19 04:57:32;;;;;;;13.77;7.95;;;8.00;1.00;;;;;;5056096;28;20220;-74
2023/12/19 05:00:01;;;;;;;12.32;7.32;;;8.10;1.00;;;;;;5062551;28;20212;-77
2023/12/19 05:02:30;;;;;;;12.10;7.32;;;8.10;1.00;;;;;;5059694;28;20216;-80
2023/12/19 05:05:00;;;;;;;10.90;7.63;;;8.00;1.00;;;;;;5061679;28;20231;-78
2023/12/19 05:07:30;;;;;;;11.90;7.25;;;8.00;1.00;;;;;;5033109;28;20232;-75
2023/12/19 05:10:00;;;;;;;14.05;7.57;;;8.00;1.00;;;;;;5059260;28;20316;-73
2023/12/19 05:12:31;;;;;;;13.77;7.60;;;8.00;1.00;;;;;;5054318;28;20579;-73
2023/12/19 05:15:00;;;;;;;13.40;7.53;;;8.00;1.00;;;;;;5060493;28;20342;-73
2023/12/19 05:17:29;;;;;;;12.13;7.55;;;8.10;1.00;;;;;;5056895;28;20276;-71
2023/12/19 05:19:58;;;;;;;13.45;6.93;;;8.00;1.00;;;;;;5064186;28;21152;-72
2023/12/19 05:22:26;;;;;;;10.95;6.88;;;8.00;1.00;;;;;;5072171;28;21045;-72
2023/12/19 05:24:55;;;;;;;12.13;7.00;;;8.00;1.00;;;;;;5064340;28;20228;-71
2023/12/19 05:27:27;;;;;;;11.73;7.65;;;8.00;1.00;;;;;;5068693;28;20231;-72
2023/12/19 05:29:56;;;;;;;12.30;7.43;;;8.10;1.00;;;;;;5027222;28;20233;-74
2023/12/19 05:32:25;;;;;;;12.23;7.70;;;8.10;1.00;;;;;;5041783;28;20215;-74
2023/12/19 05:34:54;;;;;;;11.60;7.57;;;8.10;1.00;;;;;;5035091;28;20313;-75
2023/12/19 05:37:22;;;;;;;11.80;7.20;;;8.10;1.00;;;;;;5040854;28;20705;-76
2023/12/19 05:39:50;;;;;;;12.57;7.00;;;8.10;1.00;;;;;;5027733;28;20316;-75
2023/12/19 05:42:19;;;;;;;11.70;7.18;;;8.10;1.00;;;;;;5033590;28;20347;-73
2023/12/19 05:44:49;;;;;;;9.98;7.03;;;8.10;1.00;;;;;;5029290;28;20257;-73
2023/12/19 05:47:18;;;;;;;11.00;7.13;;;8.10;1.00;;;;;;5020768;28;20288;-74
2023/12/19 05:49:46;;;;;;;13.45;7.03;;;8.10;1.00;;;;;;5031371;28;20223;-73
2023/12/19 05:52:15;;;;;;;12.05;7.00;;;8.20;1.00;;;;;;5020769;28;20218;-76
2023/12/19 05:54:43;;;;;;;9.25;6.50;;;8.20;1.00;;;;;;5032578;28;20221;-74
2023/12/19 05:57:12;;;;;;;11.75;7.07;;;8.20;1.00;;;;;;5039404;28;20779;-75
2023/12/19 05:59:40;;;;;;;9.73;6.90;;;8.30;1.00;;;;;;5020043;28;20234;-74
2023/12/19 06:02:10;;;;;;;10.35;6.47;;;8.20;1.00;;;;;;5020786;28;20234;-74
2023/12/19 06:04:39;;;;;;;12.20;7.47;;;8.20;1.00;;;;;;5026486;28;20236;-75
2023/12/19 06:07:07;;;;;;;9.68;7.30;;;8.20;1.00;;;;;;5021724;28;20252;-75
2023/12/19 06:09:36;;;;;;;14.07;7.05;;;8.20;1.00;;;;;;5020220;28;20237;-75
2023/12/19 06:12:06;;;;;;;11.90;7.15;;;8.30;1.00;;;;;;5018446;28;20217;-75
2023/12/19 06:14:38;;;;;;;12.80;7.40;;;8.20;1.00;;;;;;5024191;28;20740;-76
2023/12/19 06:17:06;;;;;;;10.30;6.85;;;8.20;1.00;;;;;;5052228;28;20655;-74
2023/12/19 06:19:36;;;;;;;10.85;7.22;;;8.30;1.00;;;;;;5025841;28;20300;-75
2023/12/19 06:22:05;;;;;;;12.95;7.65;;;8.30;1.00;;;;;;5018963;28;20245;-75
2023/12/19 06:24:33;;;;;;;14.90;10.55;;;8.30;1.00;;;;;;5021435;28;20233;-75
2023/12/19 06:27:02;;;;;;;16.52;11.45;;;8.30;1.00;;;;;;5021217;28;20312;-75
2023/12/19 06:29:30;;;;;;;19.20;12.38;;;8.40;1.00;;;;;;5054627;28;20220;-75
2023/12/19 06:31:59;;;;;;;15.18;8.88;;;8.40;1.00;;;;;;5058941;28;20800;-76
2023/12/19 06:34:29;;;;;;;15.00;8.52;;;8.40;1.00;;;;;;5056993;28;20635;-76
2023/12/19 06:37:00;;;;;;;12.30;8.32;;;8.40;1.00;;;;;;5077844;28;20617;-75
2023/12/19 06:39:29;;;;;;;12.68;7.22;;;8.40;1.00;;;;;;5066087;28;20247;-76
2023/12/19 06:41:57;;;;;;;12.35;8.18;;;8.30;1.00;;;;;;5062700;28;20227;-75
2023/12/19 06:44:26;;;;;;;12.50;7.97;;;8.30;1.00;;;;;;5064702;28;20839;-75
2023/12/19 06:46:55;;;;;;;12.43;7.32;;;8.40;1.00;;;;;;5056797;28;20216;-75
2023/12/19 06:49:24;;;;;;;10.13;7.15;;;8.30;1.00;;;;;;5054965;28;20599;-75
2023/12/19 06:51:54;;;;;;;11.55;7.72;;;8.40;1.00;;;;;;5065017;28;20216;-74
2023/12/19 06:54:24;;;;;;;12.57;7.15;;;8.30;1.00;;;;;;5065957;28;20726;-69
2023/12/19 06:56:53;;;;;;;18.88;7.70;;;8.30;1.00;;;;;;5054839;28;20699;-75
2023/12/19 06:59:21;;;;;;;13.38;7.57;;;8.20;1.00;;;;;;5058318;28;20300;-75
2023/12/19 07:01:50;;;;;;;15.00;8.23;;;8.20;1.00;;;;;;5063899;28;20230;-75
2023/12/19 07:04:19;;;;;;;16.50;7.63;;;8.10;1.00;;;;;;5071592;28;20254;-74
2023/12/19 07:06:47;;;;;;;12.27;7.78;;;8.10;1.00;;;;;;5062681;28;20218;-75
2023/12/19 07:09:16;;;;;;;12.73;7.93;;;8.10;1.00;;;;;;5059777;28;20312;-75
2023/12/19 07:11:47;;;;;;;12.07;8.05;;;8.10;1.00;;;;;;5063727;28;20216;-75
2023/12/19 07:14:15;;;;;;;12.30;7.20;;;8.20;1.00;;;;;;5056810;28;20808;-75
2023/12/19 07:16:44;;;;;;;13.27;8.40;;;8.30;1.00;;;;;;5055460;28;20221;-77
2023/12/19 07:19:13;;;;;;;14.88;7.22;;;8.20;1.00;;;;;;5039580;28;20736;-76
2023/12/19 07:21:43;;;;;;;14.27;8.38;;;8.20;1.00;;;;;;5066310;28;20312;-75
2023/12/19 07:24:11;;;;;;;12.63;8.23;;;8.30;1.00;;;;;;5059715;28;20216;-78
2023/12/19 07:26:40;;;;;;;14.85;8.02;;;8.00;1.00;;;;;;5059359;28;20212;-78
2023/12/19 07:29:10;;;;;;;14.73;7.85;;;8.00;1.00;;;;;;5051160;28;20252;-79
2023/12/19 07:31:39;;;;;;;14.63;8.48;;;8.00;1.00;;;;;;5054820;28;20224;-80
2023/12/19 07:34:08;;;;;;;13.43;7.85;;;8.00;1.00;;;;;;5064396;28;20223;-79
2023/12/19 07:36:37;;;;;;;16.58;8.20;;;8.00;1.00;;;;;;5058776;28;20295;-81
2023/12/19 07:39:06;;;;;;;12.65;8.05;;;8.00;1.00;;;;;;5053565;28;20236;-82
2023/12/19 07:41:35;;;;;;;15.63;8.02;;;8.00;1.00;;;;;;5063465;28;20216;-81
2023/12/19 07:44:09;;;;;;;12.57;7.97;;;8.10;1.00;;;;;;5057881;28;20309;-79
2023/12/19 07:46:41;;;;;;;14.07;7.82;;;8.30;1.00;;;;;;5060174;28;20259;-81
2023/12/19 07:49:10;;;;;;;14.98;8.27;;;8.30;1.00;;;;;;5062683;28;20226;-82
2023/12/19 07:51:39;;;;;;;12.50;8.23;;;8.20;1.00;;;;;;5064520;28;20216;-82
2023/12/19 07:54:08;;;;;;;14.20;8.38;;;8.20;1.00;;;;;;5063299;28;20293;-81
2023/12/19 07:56:42;;;;;;;13.02;7.82;;;8.20;1.00;;;;;;5064382;28;20251;-80
2023/12/19 07:59:11;;;;;;;11.70;8.00;;;8.30;1.00;;;;;;5065626;28;20222;-80
2023/12/19 08:01:47;;;;;;;14.20;8.70;;;8.40;1.00;;;;;;5054201;28;20249;-81
2023/12/19 08:04:16;;;;;;;13.02;8.05;;;8.40;1.00;;;;;;5082315;28;20254;-81
2023/12/19 08:06:45;;;;;;;11.90;7.72;;;8.30;1.00;;;;;;5079000;28;20216;-81
2023/12/19 08:09:15;;;;;;;15.02;8.02;;;8.30;1.00;;;;;;5063821;28;20251;-80
2023/12/19 08:11:44;;;;;;;14.60;7.85;;;8.30;1.00;;;;;;5057372;28;20227;-83
2023/12/19 08:14:13;;;;;;;11.75;8.15;;;8.30;1.00;;;;;;5061494;28;20595;-81
2023/12/19 08:16:43;;;;;;;11.35;7.63;;;8.30;1.00;;;;;;5060136;28;20224;-80
2023/12/19 08:19:12;;;;;;;12.07;7.80;;;8.40;1.00;;;;;;5059223;28;20318;-81
2023/12/19 08:21:49;;;;;;;13.05;7.85;;;8.40;1.00;;;;;;5060007;28;20247;-84
2023/12/19 08:24:18;;;;;;;10.88;7.97;;;8.40;1.00;;;;;;5055340;28;20274;-82
2023/12/19 08:26:47;;;;;;;9.50;7.22;;;8.50;1.00;;;;;;5092237;28;20224;-80
2023/12/19 08:29:16;;;;;;;11.80;7.82;;;8.50;1.00;;;;;;5064514;28;20224;-82
2023/12/19 08:31:47;;;;;;;14.30;7.80;;;8.50;1.00;;;;;;5058322;28;20234;-79
2023/12/19 08:34:19;;;;;;;14.15;7.72;;;8.50;1.00;;;;;;5067899;28;20230;-81
2023/12/19 08:36:48;;;;;;;12.38;7.72;;;8.50;1.00;;;;;;5062689;28;20222;-81
2023/12/19 08:39:17;;;;;;;13.23;7.40;;;8.60;1.00;;;;;;5061680;28;20220;-80
2023/12/19 08:41:46;;;;;;;14.13;7.93;;;8.60;1.00;;;;;;5058453;28;20224;-81
2023/12/19 08:44:15;;;;;;;11.63;7.70;;;8.60;1.00;;;;;;5059532;28;20295;-81
2023/12/19 08:46:44;;;;;;;14.07;8.10;;;8.60;1.00;;;;;;5063840;28;20308;-80
2023/12/19 08:49:14;;;;;;;12.88;8.02;;;8.60;1.00;;;;;;5057630;28;20278;-80
2023/12/19 08:51:47;;;;;;;11.35;7.60;;;8.70;1.00;;;;;;5067602;28;20224;-81
2023/12/19 08:54:15;;;;;;;14.43;8.32;;;8.80;1.00;;;;;;5078313;28;20212;-81
2023/12/19 08:56:45;;;;;;;10.18;7.63;;;8.70;1.00;;;;;;5064942;28;20694;-81
2023/12/19 08:59:13;;;;;;;11.35;7.50;;;8.70;1.00;;;;;;5077703;28;20775;-81
2023/12/19 09:01:42;;;;;;;11.95;7.60;;;8.70;1.00;;;;;;5062373;28;20892;-80
2023/12/19 09:04:11;;;;;;;11.43;7.78;;;8.60;1.00;;;;;;5065424;28;20247;-81
2023/12/19 09:06:41;;;;;;;13.00;7.85;;;8.60;1.00;;;;;;5060182;28;20251;-82
2023/12/19 09:09:11;;;;;;;11.40;7.45;;;8.80;1.00;;;;;;5067542;28;20327;-78
2023/12/19 09:11:40;;;;;;;13.07;7.93;;;8.80;1.00;;;;;;5062333;28;20224;-78
2023/12/19 09:14:11;;;;;;;12.85;8.40;;;8.80;1.00;;;;;;5057866;28;21839;-79
2023/12/19 09:16:40;;;;;;;18.25;8.55;;;8.90;1.00;;;;;;5063992;28;20226;-79
2023/12/19 09:19:08;;;;;;;12.00;8.00;;;8.90;1.00;;;;;;5064659;28;20223;-77
2023/12/19 09:21:37;;;;;;;11.90;7.45;;;8.90;1.00;;;;;;5066058;28;20227;-79
2023/12/19 09:24:07;;;;;;;12.40;8.73;;;8.90;1.00;;;;;;5071423;28;20773;-78
2023/12/19 09:26:38;;;;;;;11.13;7.97;;;9.00;1.00;;;;;;5070833;28;20220;-80
2023/12/19 09:29:07;;;;;;;14.23;8.80;;;8.90;1.00;;;;;;5065342;28;20236;-79
2023/12/19 09:31:36;;;;;;;10.65;7.60;;;8.80;1.00;;;;;;5052016;28;20290;-81
2023/12/19 09:34:05;;;;;;;11.55;7.32;;;8.90;1.00;;;;;;5074985;28;20227;-80
2023/12/19 09:36:36;;;;;;;14.35;7.95;;;8.80;1.00;;;;;;5066815;28;20307;-82
2023/12/19 09:39:23;;;;;;;9.70;7.43;;;8.90;1.00;;;;;;5061271;28;20219;-78
2023/12/19 09:41:53;;;;;;;10.57;7.15;;;8.90;1.00;;;;;;5073192;28;20343;-84
2023/12/19 09:44:22;;;;;;;9.68;7.35;;;9.00;1.00;;;;;;5060864;28;20676;-79
2023/12/19 09:46:54;;;;;;;11.18;7.57;;;9.00;1.00;;;;;;5059064;28;20275;-81
2023/12/19 09:49:24;;;;;;;12.35;8.02;;;9.10;1.00;;;;;;5057437;28;20224;-78
2023/12/19 09:51:55;;;;;;;10.50;7.22;;;9.10;1.00;;;;;;5047303;28;20229;-77
2023/12/19 09:54:26;;;;;;;11.38;7.53;;;9.00;1.00;;;;;;5038939;28;20232;-81
2023/12/19 09:56:58;;;;;;;10.05;7.97;;;9.00;1.00;;;;;;5040242;28;20295;-81
2023/12/19 09:59:28;;;;;;;10.65;7.93;;;9.00;1.00;;;;;;5036508;28;20221;-80
2023/12/19 10:01:57;;;;;;;14.35;8.52;;;9.20;1.00;;;;;;5039844;28;20216;-79
2023/12/19 10:04:27;;;;;;;13.30;8.52;;;9.20;1.00;;;;;;5035785;28;20407;-79
2023/12/19 10:06:58;;;;;;;12.00;8.23;;;9.10;1.00;;;;;;5042633;28;20225;-87
2023/12/19 10:09:29;;;;;;;10.73;8.18;;;9.10;1.00;;;;;;5075244;28;20243;-84
2023/12/19 10:12:05;;;;;;;9.57;7.95;;;9.20;1.00;;;;;;5055128;28;20310;-81
2023/12/19 10:14:34;;;;;;;11.18;8.48;;;9.30;1.00;;;;;;5076479;28;20807;-83
2023/12/19 10:17:04;;;;;;;12.15;8.75;;;9.20;1.00;;;;;;5060436;28;20228;-83
2023/12/19 10:19:34;;;;;;;10.50;7.80;;;9.20;1.00;;;;;;5079437;28;20228;-81
2023/12/19 10:22:07;;;;;;;10.85;8.00;;;9.30;1.00;;;;;;5091917;28;20304;-82
2023/12/19 10:24:39;;;;;;;11.57;8.52;;;9.40;1.00;;;;;;5072072;28;20220;-82
2023/12/19 10:27:08;;;;;;;11.85;8.27;;;9.40;1.00;;;;;;5080080;28;20234;-78
2023/12/19 10:29:40;;;;;;;12.68;8.32;;;9.40;1.00;;;;;;5060212;28;20323;-76
2023/12/19 10:32:19;;;;;;;11.38;8.15;;;9.40;1.00;;;;;;5078644;28;20298;-78
2023/12/19 10:34:56;;;;;;;12.73;8.45;;;9.30;1.00;;;;;;5067215;28;20290;-76
2023/12/19 10:37:28;;;;;;;11.52;8.10;;;9.50;1.00;;;;;;5064670;28;20622;-75
2023/12/19 10:40:14;;;;;;;13.18;8.90;;;9.50;1.00;;;;;;5067118;28;20726;-79
2023/12/19 10:42:43;;;;;;;13.25;8.73;;;9.50;1.00;;;;;;5046453;28;20232;-78
2023/12/19 10:45:12;;;;;;;13.05;8.00;;;9.50;1.00;;;;;;5042430;28;20299;-80
2023/12/19 10:47:40;;;;;;;13.55;8.48;;;9.60;1.00;;;;;;5037215;28;20640;-79
2023/12/19 10:50:09;;;;;;;11.88;8.35;;;9.60;1.00;;;;;;5071407;28;20224;-78
2023/12/19 10:52:42;;;;;;;13.00;8.68;;;9.50;1.00;;;;;;5059931;28;20219;-79
2023/12/19 10:55:18;;;;;;;9.98;8.30;;;9.50;1.00;;;;;;5056297;28;20262;-79
2023/12/19 10:57:53;;;;;;;13.55;8.23;;;9.60;1.00;;;;;;5059998;28;20617;-79
2023/12/19 11:00:25;;;;;;;14.30;8.80;;;9.60;1.00;;;;;;5059618;28;20735;-78
2023/12/19 11:03:05;;;;;;;14.32;8.75;;;9.60;1.00;;;;;;5057948;28;20915;-77
2023/12/19 11:05:41;;;;;;;12.93;9.20;;;9.60;1.00;;;;;;5060078;28;20240;-77
2023/12/19 11:08:14;;;;;;;14.05;9.60;;;9.70;1.00;;;;;;5059705;28;20273;-78
2023/12/19 11:10:50;;;;;;;11.95;8.93;;;9.60;1.00;;;;;;5059359;28;20900;-78
2023/12/19 11:13:19;;;;;;;15.68;9.23;;;9.60;1.00;;;;;;5062234;28;20226;-77
2023/12/19 11:15:56;;;;;;;11.43;8.90;;;9.70;1.00;;;;;;5053041;28;20231;-78
2023/12/19 11:18:32;;;;;;;11.75;8.25;;;9.70;1.00;;;;;;5060421;28;20214;-77
2023/12/19 11:21:06;;;;;;;10.00;8.23;;;9.70;1.00;;;;;;5063030;28;20220;-79
2023/12/19 11:23:45;;;;;;;11.02;8.55;;;9.70;1.00;;;;;;5054156;28;20224;-77
2023/12/19 11:26:22;;;;;;;10.70;8.77;;;9.70;1.00;;;;;;5064349;28;20681;-76
2023/12/19 11:28:51;;;;;;;13.25;8.95;;;9.80;1.00;;;;;;5058812;28;20247;-79
2023/12/19 11:31:30;;;;;;;12.00;8.98;;;9.80;1.00;;;;;;5064030;28;20228;-79
2023/12/19 11:34:21;;;;;;;11.77;8.75;;;9.70;1.00;;;;;;5062971;28;20220;-77
2023/12/19 11:37:03;;;;;;;15.68;9.13;;;9.70;1.00;;;;;;5080923;28;20256;-78
2023/12/19 11:39:33;;;;;;;12.35;9.18;;;9.70;1.00;;;;;;5058646;28;20304;-79
2023/12/19 11:42:04;;;;;;;12.30;8.85;;;9.70;1.00;;;;;;5056707;28;20223;-80
2023/12/19 11:44:36;;;;;;;12.57;8.85;;;9.80;1.00;;;;;;5056571;28;20300;-82
2023/12/19 11:47:15;;;;;;;11.35;9.00;;;9.70;1.00;;;;;;5077381;28;20223;-82
2023/12/19 11:49:44;;;;;;;12.63;8.80;;;9.80;1.00;;;;;;5060261;28;20220;-80
2023/12/19 11:52:32;;;;;;;11.63;8.40;;;9.80;1.00;;;;;;5059496;28;20320;-79
2023/12/19 11:55:04;;;;;;;11.80;9.43;;;9.80;1.00;;;;;;5059575;28;20420;-81
2023/12/19 11:57:38;;;;;;;14.30;9.13;;;9.80;1.00;;;;;;5053935;28;20216;-80
2023/12/19 12:00:13;;;;;;;12.52;8.82;;;9.90;1.00;;;;;;5056333;28;20250;-83
2023/12/19 12:02:42;;;;;;;13.35;8.93;;;9.90;1.00;;;;;;5058688;28;20226;-81
2023/12/19 12:05:13;;;;;;;12.70;9.75;;;9.80;1.00;;;;;;5061029;28;20282;-80
2023/12/19 12:07:47;;;;;;;13.02;9.50;;;9.80;1.00;;;;;;5078321;28;20240;-80
2023/12/19 12:10:18;;;;;;;12.13;9.35;;;9.80;1.00;;;;;;5059183;28;20254;-82
2023/12/19 12:12:48;;;;;;;14.10;10.00;;;9.90;1.00;;;;;;5058556;28;20220;-80
2023/12/19 12:15:19;;;;;;;15.00;9.63;;;9.90;1.00;;;;;;5059340;28;20346;-78
2023/12/19 12:17:48;;;;;;;13.13;8.93;;;9.80;1.00;;;;;;5060020;28;20251;-81
2023/12/19 12:20:24;;;;;;;11.48;9.35;;;9.90;1.00;;;;;;5092498;28;20558;-80
2023/12/19 12:22:54;;;;;;;11.88;8.90;;;9.90;1.00;;;;;;5052480;28;20223;-79
2023/12/19 12:25:23;;;;;;;13.40;9.23;;;9.90;1.00;;;;;;5059708;28;20228;-77
2023/12/19 12:28:08;;;;;;;12.45;8.57;;;9.90;1.00;;;;;;5059549;28;21556;-77
2023/12/19 12:30:38;;;;;;;11.85;9.43;;;9.90;1.00;;;;;;5059096;28;20236;-79
2023/12/19 12:33:08;;;;;;;12.02;8.75;;;9.90;1.00;;;;;;5058076;28;20232;-78
2023/12/19 12:35:38;;;;;;;11.85;8.88;;;9.80;1.00;;;;;;5057305;28;20216;-80
2023/12/19 12:38:10;;;;;;;12.38;9.45;;;9.90;1.00;;;;;;5064514;28;20228;-78
2023/12/19 12:40:54;;;;;;;13.13;8.93;;;9.90;1.00;;;;;;5063292;28;20238;-78
2023/12/19 12:43:36;;;;;;;13.13;8.57;;;9.90;1.00;;;;;;5057977;28;20227;-76
2023/12/19 12:46:09;;;;;;;14.80;9.30;;;9.90;1.00;;;;;;5063662;28;20224;-78
2023/12/19 12:48:40;;;;;;;14.32;8.98;;;9.90;1.00;;;;;;5058682;28;20254;-77
2023/12/19 12:51:09;;;;;;;15.57;9.80;;;10.00;1.00;;;;;;5060768;28;20223;-79
2023/12/19 12:53:39;;;;;;;17.83;10.23;;;10.00;1.00;;;;;;5062192;28;20227;-79
2023/12/19 12:56:12;;;;;;;14.68;9.38;;;10.00;1.00;;;;;;5063566;28;20745;-80
2023/12/19 12:58:42;;;;;;;13.80;9.63;;;9.90;1.00;;;;;;5068485;28;20234;-82
2023/12/19 13:01:11;;;;;;;14.55;9.18;;;9.80;1.00;;;;;;5065939;28;20337;-81
2023/12/19 13:03:40;;;;;;;25.67;15.57;;;9.90;1.00;;;;;;5095013;28;20224;-82
2023/12/19 13:06:09;;;;;;;13.15;9.10;;;10.00;1.00;;;;;;5063671;28;20788;-78
2023/12/19 13:08:37;;;;;;;11.27;8.20;;;10.00;1.00;;;;;;5061787;28;20225;-74
2023/12/19 13:11:07;;;;;;;16.23;8.95;;;10.00;1.00;;;;;;5063855;28;20234;-78
2023/12/19 13:13:37;;;;;;;13.27;8.38;;;10.00;1.00;;;;;;5090856;28;20581;-78